• Join FlightAware (Why Join?)
  • Login
  • US Flag 
09:09PM EDT


 

Airport Tracker/Info


-or-


 

Live Flight TrackerFlight Track Log ✈ VH-ZPO ✈ 01-May-2013 ✈ YMHB / HBA - YBBN / BNE

Flight Track Log - Related Links

Times and Time Zones

All times are in EDT time to prevent confusion due to time zone crossing. See the VH-ZPO flight status page for this flight to view local times or setup timezone preferences in your user account.

Time Position Orientation Groundspeed Altitude Reporting Facility
EDT Latitude Longitude Course Direction KTS MPH feet Rate Location/Type
12:44AM -42.8319 147.5821 North 219 252 2,400  Level Aus ATC (RADAR)
12:45AM -42.7662 147.5887 North 257 296 4,800 2,880 Climbing Aus ATC (RADAR)
12:45AM -42.7469 147.5912 North 265 305 5,800 3,420 Climbing Aus ATC (RADAR)
12:47AM -42.6422 147.6081 North 281 323 10,300 3,180 Climbing Aus ATC (RADAR)
12:47AM -42.6217 147.6112 North 285 328 10,900 2,280 Climbing Aus ATC (RADAR)
12:47AM -42.5702 147.6198 North 309 356 12,200 2,640 Climbing Aus ATC (RADAR)
12:48AM -42.4864 147.6333 North 325 374 14,900 2,700 Climbing Aus ATC (RADAR)
12:49AM -42.4315 147.6427 North 335 386 16,300 2,580 Climbing Aus ATC (RADAR)
12:50AM -42.3500 147.6559 North 347 399 18,600 2,760 Climbing Aus ATC (RADAR)
12:50AM -42.3256 147.6597 North 347 399 19,300 2,460 Climbing Aus ATC (RADAR)
12:51AM -42.2098 147.6793 North 357 411 22,100 2,340 Climbing Aus ATC (RADAR)
12:52AM -42.1590 147.6877 North 362 417 23,200 2,100 Climbing Aus ATC (RADAR)
12:52AM -42.1339 147.6925 North 363 418 23,700 1,740 Climbing Aus ATC (RADAR)
12:52AM -42.0647 147.7040 North 372 428 24,800 1,680 Climbing Aus ATC (RADAR)
12:53AM -41.9759 147.7172 North 383 441 26,200 1,500 Climbing Aus ATC (RADAR)
12:54AM -41.9128 147.7266 North 387 445 27,000 1,320 Climbing Aus ATC (RADAR)
12:55AM -41.7906 147.7471 North 408 470 28,400 1,260 Climbing Aus ATC (RADAR)
12:55AM -41.7619 147.7514 North 409 471 28,700 1,200 Climbing Aus ATC (RADAR)
12:56AM -41.6152 147.7755 North 422 486 30,200 1,020 Climbing Aus ATC (RADAR)
12:57AM -41.5754 147.7820 North 428 493 30,400 960 Climbing Aus ATC (RADAR)
12:57AM -41.5045 147.7932 North 436 502 31,100 1,020 Climbing Aus ATC (RADAR)
12:58AM -41.4024 147.8096 North 443 510 31,900 900 Climbing Aus ATC (RADAR)
12:59AM -41.3298 147.8212 North 449 517 32,400 1,200 Climbing Aus ATC (RADAR)
01:00AM -41.2167 147.8389 North 443 510 33,700 1,020 Climbing Aus ATC (RADAR)
01:00AM -41.1653 147.8472 North 446 513 33,800 900 Climbing Aus ATC (RADAR)
01:02AM -40.9596 147.8798 North 444 511 35,600 960 Climbing Aus ATC (RADAR)
01:02AM -40.9287 147.8848 North 446 513 35,700 960 Climbing Aus ATC (RADAR)
01:03AM -40.8560 147.8963 North 449 517 36,400 1,260 Climbing Aus ATC (RADAR)
01:03AM -40.8158 147.9028 North 444 511 36,900 600 Climbing Aus ATC (RADAR)
01:05AM -40.5681 147.9480 North 504 580 37,800 360 Climbing Aus ATC (RADAR)
01:06AM -40.4592 147.9599 North 443 510 38,000 180 Climbing Aus ATC (RADAR)
01:06AM -40.3857 147.9719 North 451 519 38,100 120 Climbing Aus ATC (RADAR)
01:07AM -40.3551 147.9756 North 450 518 38,100  Level Aus ATC (RADAR)
01:07AM -40.2816 147.9859 North 455 524 38,100  Level Aus ATC (RADAR)
01:08AM -40.1734 148.0033 North 463 533 38,100  Level Aus ATC (RADAR)
01:09AM -40.0994 148.0141 North 462 532 38,100  Level Aus ATC (RADAR)
01:10AM -39.9931 148.0403 11° North 456 525 38,100  Level Aus ATC (RADAR)
01:10AM -39.9621 148.0480 11° North 455 524 38,100 120 Level Aus ATC (RADAR)
01:10AM -39.8872 148.0681 12° North 462 532 38,200  Climbing Aus ATC (RADAR)
01:12AM -39.6937 148.1191 11° North 470 541 38,200  Level Aus ATC (RADAR)
01:12AM -39.6621 148.1268 11° North 470 541 38,200  Level Aus ATC (RADAR)
01:13AM -39.5870 148.1464 11° North 471 542 38,200  Level Aus ATC (RADAR)
01:14AM -39.4689 148.1772 11° North 472 543 38,200  Level Aus ATC (RADAR)
01:14AM -39.3840 148.1985 11° North 471 542 38,200  Level Aus ATC (RADAR)
01:15AM -39.2670 148.2285 11° North 470 541 38,200  Level Aus ATC (RADAR)
01:16AM -39.1077 148.2699 11° North 467 537 38,200  Level Aus ATC (RADAR)
01:17AM -39.0342 148.2888 11° North 465 535 38,200  Level Aus ATC (RADAR)
01:18AM -38.9298 148.3149 11° North 463 533 38,200  Level Aus ATC (RADAR)
01:19AM -38.8147 148.3436 11° North 462 532 38,200  Level Aus ATC (RADAR)
01:19AM -38.7528 148.3594 11° North 460 529 38,200  Level Aus ATC (RADAR)
01:20AM -38.6485 148.3854 11° North 460 529 38,200  Level Aus ATC (RADAR)
01:20AM -38.6069 148.3957 11° North 460 529 38,200  Level Aus ATC (RADAR)
01:22AM -38.4165 148.4437 11° North 463 533 38,200  Level Aus ATC (RADAR)
01:22AM -38.3742 148.4543 11° North 464 534 38,200  Level Aus ATC (RADAR)
01:23AM -38.3007 148.4729 11° North 464 534 38,200  Level Aus ATC (RADAR)
01:24AM -38.1942 148.4994 11° North 466 536 38,200  Level Aus ATC (RADAR)
01:24AM -38.1208 148.5172 11° North 463 533 38,200  Level Aus ATC (RADAR)
01:25AM -38.0045 148.5463 11° North 467 537 38,200  Level Aus ATC (RADAR)
01:25AM -37.9727 148.5542 11° North 468 539 38,200  Level Aus ATC (RADAR)
01:27AM -37.8021 148.5959 11° North 469 540 38,200  Level Aus ATC (RADAR)
01:27AM -37.7705 148.6041 12° North 469 540 38,200  Level Aus ATC (RADAR)
01:28AM -37.6853 148.6247 11° North 469 540 38,200  Level Aus ATC (RADAR)
01:29AM -37.5685 148.6532 11° North 469 540 38,200  Level Aus ATC (RADAR)
01:29AM -37.4842 148.6737 11° North 466 536 38,200 -60 Level Aus ATC (RADAR)
01:30AM -37.3571 148.7047 11° North 466 536 38,100 -120 Descending Aus ATC (RADAR)
01:31AM -37.2938 148.7200 11° North 465 535 38,100  Level Aus ATC (RADAR)
01:33AM -37.0731 148.7731 11° North 466 536 38,100  Level Aus ATC (RADAR)
01:33AM -37.0414 148.7808 11° North 467 537 38,100  Level Aus ATC (RADAR)
01:33AM -36.9678 148.7988 11° North 463 533 38,100  Level Aus ATC (RADAR)
01:34AM -36.8745 148.8212 11° North 456 525 38,100  Level Aus ATC (RADAR)
01:35AM -36.8030 148.8380 11° North 450 518 38,100  Level Aus ATC (RADAR)
01:36AM -36.6894 148.8656 11° North 457 526 38,100  Level Aus ATC (RADAR)
01:37AM -36.5116 148.9076 11° North 462 532 38,100  Level Aus ATC (RADAR)
01:37AM -36.4802 148.9148 10° North 462 532 38,100  Level Aus ATC (RADAR)
01:38AM -36.4069 148.9321 11° North 462 532 38,100  Level Aus ATC (RADAR)
01:39AM -36.2916 148.9597 11° North 463 533 38,100  Level Aus ATC (RADAR)
01:39AM -36.2179 148.9773 11° North 464 534 38,100  Level Aus ATC (RADAR)
01:40AM -36.1025 149.0046 11° North 463 533 38,100  Level Aus ATC (RADAR)
01:41AM -36.0289 149.0214 10° North 463 533 38,100  Level Aus ATC (RADAR)
01:43AM -35.7972 149.0755 11° North 465 535 38,100  Level Aus ATC (RADAR)
01:43AM -35.7655 149.0831 11° North 467 537 38,100  Level Aus ATC (RADAR)
01:44AM -35.6906 149.1006 11° North 470 541 38,100  Level Aus ATC (RADAR)
01:44AM -35.5834 149.1254 11° North 474 545 38,100  Level Aus ATC (RADAR)
01:45AM -35.4972 149.1454 11° North 475 547 38,100  Level Aus ATC (RADAR)
01:46AM -35.3781 149.1735 11° North 477 549 38,100  Level Aus ATC (RADAR)
01:47AM -35.2489 149.2015 10° North 470 541 38,100  Level Aus ATC (RADAR)
01:47AM -35.1863 149.2108 North 457 526 38,100  Level Aus ATC (RADAR)
01:48AM -35.1449 149.2163 North 453 521 38,100  Level Aus ATC (RADAR)
01:48AM -35.0723 149.2269 North 452 520 38,100  Level Aus ATC (RADAR)
01:49AM -34.9679 149.2423 North 455 524 38,100  Level Aus ATC (RADAR)
01:50AM -34.8942 149.2537 North 455 524 38,100  Level Aus ATC (RADAR)
01:51AM -34.7796 149.2708 North 455 524 38,100  Level Aus ATC (RADAR)
01:51AM -34.7484 149.2755 North 455 524 38,100  Level Aus ATC (RADAR)
01:52AM -34.5824 149.3001 North 449 517 38,100  Level Aus ATC (RADAR)
01:53AM -34.5414 149.3061 North 447 514 38,100  Level Aus ATC (RADAR)
01:53AM -34.4696 149.3165 North 447 514 38,100  Level Aus ATC (RADAR)
01:54AM -34.3564 149.3334 North 448 516 38,100  Level Aus ATC (RADAR)
01:55AM -34.2792 149.3449 North 443 510 38,100  Level Aus ATC (RADAR)
01:56AM -34.1710 149.3611 North 449 517 38,100  Level Aus ATC (RADAR)
01:56AM -34.0986 149.3718 North 450 518 38,100  Level Aus ATC (RADAR)
01:57AM -33.9597 149.3929 North 444 511 38,100  Level Aus ATC (RADAR)
01:58AM -33.9286 149.3975 North 445 512 38,100  Level Aus ATC (RADAR)
01:58AM -33.8561 149.4080 North 445 512 38,100  Level Aus ATC (RADAR)
01:59AM -33.7427 149.4246 North 444 511 38,100  Level Aus ATC (RADAR)
02:00AM -33.6711 149.4348 North 441 507 38,100  Level Aus ATC (RADAR)
02:01AM -33.5583 149.4512 North 441 507 38,100  Level Aus ATC (RADAR)
02:01AM -33.4866 149.4614 North 441 507 38,100  Level Aus ATC (RADAR)
02:03AM -33.3024 149.4881 North 442 509 38,100  Level Aus ATC (RADAR)
02:03AM -33.2720 149.4924 North 439 505 38,100  Level Aus ATC (RADAR)
02:04AM -33.1948 149.5034 North 446 513 38,100  Level Aus ATC (RADAR)
02:04AM -33.0870 149.5189 North 442 509 38,100  Level Aus ATC (RADAR)
02:05AM -33.0154 149.5291 North 440 506 38,100  Level Aus ATC (RADAR)
02:06AM -32.9020 149.5455 North 443 510 38,100  Level Aus ATC (RADAR)
02:06AM -32.8254 149.5561 North 446 513 38,100  Level Aus ATC (RADAR)
02:08AM -32.5810 149.5933 North 443 510 38,100  Level Aus ATC (RADAR)
02:09AM -32.5509 149.6066 20° North 451 519 38,100  Level Aus ATC (RADAR)
02:09AM -32.4855 149.6568 33° Northeast 470 541 38,100  Level Aus ATC (RADAR)
02:10AM -32.4074 149.7232 36° Northeast 487 560 38,100  Level Aus ATC (RADAR)
02:11AM -32.3388 149.7807 35° Northeast 483 556 38,100  Level Aus ATC (RADAR)
02:12AM -32.2422 149.8618 35° Northeast 487 560 38,100  Level Aus ATC (RADAR)
02:12AM -32.1421 149.9454 35° Northeast 484 557 38,100  Level Aus ATC (RADAR)
02:13AM -32.1146 149.9679 35° Northeast 483 556 38,100  Level Aus ATC (RADAR)
02:13AM -32.0320 150.0373 35° Northeast 488 562 38,100  Level Aus ATC (RADAR)
02:14AM -31.9679 150.0902 35° Northeast 485 558 38,100  Level Aus ATC (RADAR)
02:15AM -31.8625 150.1777 35° Northeast 482 555 38,100  Level Aus ATC (RADAR)
02:15AM -31.8300 150.2047 35° Northeast 487 560 38,100  Level Aus ATC (RADAR)
02:16AM -31.7748 150.2502 35° Northeast 487 560 38,100  Level Aus ATC (RADAR)
02:17AM -31.6733 150.3338 35° Northeast 489 563 38,100  Level Aus ATC (RADAR)
02:18AM -31.5678 150.4206 35° Northeast 479 551 38,100  Level Aus ATC (RADAR)
02:18AM -31.4795 150.4933 35° Northeast 489 563 38,100  Level Aus ATC (RADAR)
02:19AM -31.4146 150.5462 35° Northeast 489 563 38,100  Level Aus ATC (RADAR)
02:20AM -31.3128 150.6292 35° Northeast 487 560 38,100  Level Aus ATC (RADAR)
02:21AM -31.2477 150.6823 35° Northeast 490 564 38,100  Level Aus ATC (RADAR)
02:22AM -31.1367 150.7731 35° Northeast 489 563 38,100  Level Aus ATC (RADAR)
02:23AM -31.0208 150.8766 37° Northeast 489 563 38,100  Level Aus ATC (RADAR)
02:23AM -30.9614 150.9385 42° Northeast 493 567 38,100  Level Aus ATC (RADAR)
02:23AM -30.9314 150.9694 42° Northeast 485 558 38,100  Level Aus ATC (RADAR)
02:24AM -30.8720 151.0315 42° Northeast 483 556 38,100  Level Aus ATC (RADAR)
02:25AM -30.7689 151.1381 42° Northeast 489 563 38,100  Level Aus ATC (RADAR)
02:26AM -30.7086 151.2007 42° Northeast 489 563 38,100  Level Aus ATC (RADAR)
02:27AM -30.6098 151.3028 42° Northeast 499 574 38,100  Level Aus ATC (RADAR)
02:28AM -30.4718 151.4451 42° Northeast 502 578 38,100  Level Aus ATC (RADAR)
02:28AM -30.4197 151.4981 41° Northeast 501 577 38,100  Level Aus ATC (RADAR)
02:29AM -30.3939 151.5242 41° Northeast 499 574 38,100  Level Aus ATC (RADAR)
02:29AM -30.3286 151.5918 42° Northeast 490 564 38,100  Level Aus ATC (RADAR)
02:30AM -30.2369 151.6843 41° Northeast 504 580 38,100  Level Aus ATC (RADAR)
02:31AM -30.1758 151.7467 41° Northeast 504 580 38,100  Level Aus ATC (RADAR)
02:32AM -30.0793 151.8447 41° Northeast 506 582 38,100  Level Aus ATC (RADAR)
02:32AM -30.0529 151.8719 42° Northeast 508 585 38,100  Level Aus ATC (RADAR)
02:33AM -29.9020 152.0249 41° Northeast 514 592 38,100  Level Aus ATC (RADAR)
02:34AM -29.8706 152.0559 41° Northeast 500 575 38,100  Level Aus ATC (RADAR)
02:34AM -29.8083 152.1192 41° Northeast 499 574 38,100  Level Aus ATC (RADAR)
02:35AM -29.7064 152.2226 41° Northeast 511 588 38,100  Level Aus ATC (RADAR)
02:36AM -29.6427 152.2830 39° Northeast 512 589 38,100  Level Aus ATC (RADAR)
02:37AM -29.5486 152.3771 41° Northeast 500 575 38,100  Level Aus ATC (RADAR)
02:37AM -29.4818 152.4461 42° Northeast 515 593 38,100 -180 Level Aus ATC (RADAR)
02:38AM -29.3553 152.5719 41° Northeast 515 593 37,800 -480 Descending Aus ATC (RADAR)
02:39AM -29.3193 152.6078 41° Northeast 515 593 37,400 -1,020 Descending Aus ATC (RADAR)
02:39AM -29.2561 152.6698 41° Northeast 513 590 36,900 -1,500 Descending Aus ATC (RADAR)
02:41AM -29.1229 152.8016 41° Northeast 506 582 34,700 -2,040 Descending Aus ATC (RADAR)
02:41AM -29.0609 152.8627 41° Northeast 504 580 33,200 -2,700 Descending Aus ATC (RADAR)
02:42AM -28.9795 152.9448 41° Northeast 477 549 31,000 -2,640 Descending Aus ATC (RADAR)
02:43AM -28.8514 153.0543 37° Northeast 468 539 28,000 -2,520 Descending Aus ATC (RADAR)
02:44AM -28.7917 153.0705 13° North 445 512 26,800 -2,280 Descending Aus ATC (RADAR)
02:44AM -28.7624 153.0775 12° North 436 502 26,300 -2,160 Descending Aus ATC (RADAR)
02:44AM -28.6950 153.0941 12° North 427 491 25,000 -2,220 Descending Aus ATC (RADAR)
02:45AM -28.5838 153.1224 13° North 409 471 22,800 -2,160 Descending Aus ATC (RADAR)
02:46AM -28.5215 153.1392 13° North 398 458 21,600 -2,100 Descending Aus ATC (RADAR)
02:47AM -28.4237 153.1642 13° North 391 450 19,700 -2,100 Descending Aus ATC (RADAR)
02:48AM -28.3215 153.1902 13° North 373 429 17,700 -2,040 Descending Aus ATC (RADAR)
02:49AM -28.2647 153.2048 13° North 361 415 16,500 -2,220 Descending Aus ATC (RADAR)
02:49AM -28.2312 153.2077 North 362 417 15,700 -2,580 Descending Aus ATC (RADAR)
02:51AM -28.0388 153.2629 13° North  Level FlightAware Approximate
02:58AM -27.3842 153.1175 337° Northwest  Level Estimated
02:59AM -27.3842 153.1175 337° Northwest  Level Estimated
03:00AM -27.3842 153.1175 337° Northwest  Level Estimated
03:01AM -27.3842 153.1175 337° Northwest  Level Estimated
03:02AM -27.3842 153.1175 337° Northwest  Level Estimated
03:03AM -27.3842 153.1175 337° Northwest  Level Estimated